createdAt,value
2019-01-21T00:00:46.374Z,8.47
2019-01-21T00:03:18.727Z,9.83
2019-01-21T00:05:51.296Z,8.25
2019-01-21T00:08:22.953Z,8.00
2019-01-21T00:10:55.170Z,7.97
2019-01-21T00:18:29.284Z,9.03
2019-01-21T00:26:03.126Z,9.25
2019-01-21T00:28:40.000Z,9.17
2019-01-21T00:31:12.141Z,9.00
2019-01-21T00:33:44.285Z,9.63
2019-01-21T00:38:47.446Z,10.40
2019-01-21T00:41:19.699Z,9.40
2019-01-21T00:43:51.733Z,9.20
2019-01-21T00:46:23.945Z,9.67
2019-01-21T00:48:56.283Z,8.48
2019-01-21T00:53:58.935Z,9.53
2019-01-21T00:56:30.954Z,9.20
2019-01-21T00:59:03.284Z,10.75
2019-01-21T01:04:05.954Z,8.13
2019-01-21T01:06:37.950Z,11.33
2019-01-21T01:09:10.674Z,9.73
2019-01-21T01:11:42.708Z,9.00
2019-01-21T01:14:14.752Z,9.60
2019-01-21T01:16:46.811Z,8.87
2019-01-21T01:19:19.246Z,9.10
2019-01-21T01:24:21.789Z,10.13
2019-01-21T01:26:53.901Z,8.73
2019-01-21T01:29:25.951Z,8.93
2019-01-21T01:31:57.957Z,8.75
2019-01-21T01:34:29.934Z,9.33
2019-01-21T01:37:02.352Z,9.60
2019-01-21T01:44:35.883Z,9.37
2019-01-21T01:47:08.124Z,9.87
2019-01-21T01:49:40.140Z,10.20
2019-01-21T01:52:12.294Z,10.33
2019-01-21T01:54:44.660Z,10.18
2019-01-21T01:57:16.711Z,8.33
2019-01-21T01:59:48.891Z,10.23
2019-01-21T02:02:21.297Z,8.60
2019-01-21T02:04:53.677Z,9.63
2019-01-21T02:07:25.748Z,9.68
2019-01-21T02:09:58.071Z,10.20
2019-01-21T02:12:30.100Z,9.58
2019-01-21T02:15:02.098Z,9.00
2019-01-21T02:17:34.324Z,8.60
2019-01-21T02:20:07.937Z,9.83
2019-01-21T02:22:44.435Z,8.83
2019-01-21T02:25:16.952Z,9.18
2019-01-21T02:28:44.284Z,8.37
2019-01-21T02:35:13.721Z,9.98
2019-01-21T02:38:14.911Z,8.50
2019-01-21T02:41:28.894Z,8.70
2019-01-21T02:44:43.315Z,9.85
2019-01-21T02:47:45.082Z,8.85
2019-01-21T02:51:13.586Z,10.25
2019-01-21T02:54:06.867Z,10.48
2019-01-21T02:57:25.267Z,8.58
2019-01-21T03:03:30.956Z,10.10
2019-01-21T03:10:27.397Z,8.65
2019-01-21T03:13:38.299Z,9.13
2019-01-21T03:26:21.288Z,9.10
2019-01-21T03:32:21.724Z,8.50
2019-01-21T03:35:52.667Z,9.55
2019-01-21T03:39:13.291Z,8.00
2019-01-21T03:48:43.237Z,8.90
2019-01-21T03:54:59.968Z,8.63
2019-01-21T03:58:59.705Z,7.62
2019-01-21T04:02:14.270Z,8.40
2019-01-21T04:09:01.547Z,7.37
2019-01-21T04:12:21.293Z,8.08
2019-01-21T04:18:30.291Z,8.60
2019-01-21T04:28:44.720Z,8.48
2019-01-21T04:32:03.335Z,9.10
2019-01-21T04:35:39.712Z,7.87
2019-01-21T04:39:27.144Z,6.40
2019-01-21T04:46:11.710Z,8.53
2019-01-21T04:49:24.304Z,7.35
2019-01-21T04:52:25.285Z,7.40
2019-01-21T04:58:47.239Z,9.08
2019-01-21T05:05:17.889Z,8.13
2019-01-21T05:08:43.680Z,7.10
2019-01-21T05:12:10.754Z,8.48
2019-01-21T05:15:43.838Z,8.83
2019-01-21T05:19:04.663Z,7.72
2019-01-21T05:22:57.677Z,7.15
2019-01-21T05:26:14.255Z,7.65
2019-01-21T05:32:43.289Z,8.53
2019-01-21T05:39:18.691Z,6.30
2019-01-21T05:42:52.699Z,7.43
2019-01-21T05:45:58.285Z,7.83
2019-01-21T05:52:20.945Z,7.03
2019-01-21T05:55:54.291Z,8.47
2019-01-21T06:02:03.947Z,7.57
2019-01-21T06:05:40.428Z,7.72
2019-01-21T06:09:27.729Z,6.62
2019-01-21T06:12:56.781Z,6.92
2019-01-21T06:16:14.281Z,6.65
2019-01-21T06:25:46.779Z,7.60
2019-01-21T06:29:13.999Z,6.27
2019-01-21T06:32:54.091Z,6.10
2019-01-21T06:36:14.085Z,7.45
2019-01-21T06:39:59.647Z,6.97
2019-01-21T06:43:33.275Z,7.27
2019-01-21T06:50:12.280Z,6.97
2019-01-21T06:56:23.291Z,6.62
2019-01-21T07:03:07.740Z,6.30
2019-01-21T07:06:24.621Z,6.87
2019-01-21T07:09:44.285Z,8.28
2019-01-21T07:16:00.410Z,8.58
2019-01-21T07:19:43.572Z,6.53
2019-01-21T07:23:01.291Z,5.90
2019-01-21T07:29:33.244Z,7.13
2019-01-21T07:36:29.754Z,6.70
2019-01-21T07:39:52.668Z,6.55
2019-01-21T07:43:32.947Z,7.17
2019-01-21T07:46:57.431Z,8.00
2019-01-21T07:50:23.672Z,8.48
2019-01-21T07:53:40.592Z,7.43
2019-01-21T07:57:13.671Z,7.97
2019-01-21T08:00:57.016Z,10.37
2019-01-21T08:04:29.689Z,7.57
2019-01-21T08:08:03.405Z,8.20
2019-01-21T08:11:09.953Z,8.60
2019-01-21T08:14:36.944Z,9.08
2019-01-21T08:18:01.909Z,9.48
2019-01-21T08:21:23.681Z,9.23
2019-01-21T08:24:39.373Z,11.03
2019-01-21T08:28:22.679Z,9.43
2019-01-21T08:31:41.951Z,9.45
2019-01-21T08:34:54.681Z,11.57
2019-01-21T08:38:18.020Z,10.07
2019-01-21T08:48:22.953Z,10.40
2019-01-21T08:51:46.950Z,10.82
2019-01-21T08:55:19.593Z,11.43
2019-01-21T08:58:51.118Z,11.33
2019-01-21T09:02:23.783Z,11.35
2019-01-21T09:05:47.269Z,10.85
2019-01-21T09:15:43.334Z,10.93
2019-01-21T09:21:33.121Z,12.55
2019-01-21T09:24:27.664Z,12.37
2019-01-21T09:28:08.399Z,12.83
2019-01-21T09:31:21.682Z,12.87
2019-01-21T09:34:38.065Z,11.18
2019-01-21T09:41:49.943Z,11.57
2019-01-21T09:45:12.870Z,12.40
2019-01-21T09:47:43.211Z,12.28
2019-01-21T09:50:17.887Z,12.30
2019-01-21T09:52:52.630Z,11.83
2019-01-21T09:55:29.720Z,12.53
2019-01-21T09:58:12.559Z,12.90
2019-01-21T10:00:47.580Z,12.90
2019-01-21T10:03:22.682Z,13.13
2019-01-21T10:06:01.726Z,13.68
2019-01-21T10:09:12.132Z,12.68
2019-01-21T10:15:56.536Z,13.38
2019-01-21T10:19:00.334Z,13.50
2019-01-21T10:22:38.679Z,13.60
2019-01-21T10:25:45.079Z,13.85
2019-01-21T10:35:22.279Z,13.73
2019-01-21T10:41:46.062Z,12.33
2019-01-21T10:45:13.004Z,12.23
2019-01-21T10:48:28.372Z,13.47
2019-01-21T10:51:45.318Z,13.97
2019-01-21T10:54:47.788Z,13.38
2019-01-21T10:57:52.723Z,13.05
2019-01-21T11:04:18.890Z,12.65
2019-01-21T11:07:56.292Z,12.60
2019-01-21T11:11:24.952Z,12.15
2019-01-21T11:14:31.271Z,12.45
2019-01-21T11:21:19.280Z,11.13
2019-01-21T11:24:51.796Z,12.28
2019-01-21T11:28:25.290Z,11.68
2019-01-21T11:31:53.679Z,11.80
2019-01-21T11:35:12.940Z,10.88
2019-01-21T11:38:13.697Z,10.53
2019-01-21T11:41:30.585Z,10.50
2019-01-21T11:45:19.920Z,10.70
2019-01-21T11:49:06.943Z,10.00
2019-01-21T11:52:39.738Z,9.48
2019-01-21T11:56:13.280Z,10.18
2019-01-21T11:59:34.057Z,9.60
2019-01-21T12:02:57.786Z,10.10
2019-01-21T12:06:15.946Z,9.95
2019-01-21T12:09:46.275Z,9.55
2019-01-21T12:16:00.670Z,9.40
2019-01-21T12:19:16.748Z,8.13
2019-01-21T12:22:45.269Z,9.80
2019-01-21T12:25:37.680Z,9.68
2019-01-21T12:28:48.654Z,9.67
2019-01-21T12:32:30.268Z,10.82
2019-01-21T12:35:46.512Z,10.28
2019-01-21T12:39:26.866Z,9.90
2019-01-21T12:43:13.675Z,9.70
2019-01-21T12:46:19.725Z,9.87
2019-01-21T12:50:06.747Z,9.55
2019-01-21T12:53:30.585Z,9.90
2019-01-21T12:56:55.669Z,10.20
2019-01-21T13:00:50.046Z,9.93
2019-01-21T13:04:11.727Z,9.93
2019-01-21T13:07:59.478Z,9.93
2019-01-21T13:11:31.421Z,9.87
2019-01-21T13:15:10.896Z,9.73
2019-01-21T13:18:34.492Z,9.57
2019-01-21T13:22:09.280Z,9.23
2019-01-21T13:25:26.457Z,9.45
2019-01-21T13:28:32.284Z,9.35
2019-01-21T13:31:55.280Z,10.08
2019-01-21T13:35:03.064Z,9.18
2019-01-21T13:38:26.383Z,9.00
2019-01-21T13:41:53.949Z,8.73
2019-01-21T13:45:28.374Z,8.30
2019-01-21T13:49:16.407Z,8.40
2019-01-21T13:52:43.261Z,7.90
2019-01-21T13:58:55.738Z,7.92
2019-01-21T14:02:06.573Z,8.30
2019-01-21T14:05:52.716Z,9.07
2019-01-21T14:09:48.945Z,8.43
2019-01-21T14:13:05.939Z,7.20
2019-01-21T14:16:39.933Z,8.43
2019-01-21T14:19:59.278Z,7.83
2019-01-21T14:26:26.359Z,8.53
2019-01-21T14:29:29.121Z,8.45
2019-01-21T14:35:32.712Z,9.57
2019-01-21T14:39:02.929Z,8.67
2019-01-21T14:42:17.332Z,9.03
2019-01-21T14:45:55.003Z,8.40
2019-01-21T14:49:30.335Z,8.67
2019-01-21T14:52:36.375Z,8.30
2019-01-21T14:55:33.343Z,8.17
2019-01-21T15:02:10.277Z,9.25
2019-01-21T15:11:53.311Z,9.00
2019-01-21T15:15:34.599Z,8.65
2019-01-21T15:18:35.288Z,8.37
2019-01-21T15:21:42.282Z,9.00
2019-01-21T15:28:35.972Z,8.38
2019-01-21T15:31:31.682Z,9.03
2019-01-21T15:34:28.730Z,9.13
2019-01-21T15:38:06.800Z,8.57
2019-01-21T15:45:06.461Z,9.50
2019-01-21T15:48:25.644Z,9.78
2019-01-21T15:51:57.667Z,8.65
2019-01-21T15:55:09.697Z,8.73
2019-01-21T15:58:32.170Z,8.87
2019-01-21T16:01:42.892Z,8.53
2019-01-21T16:04:57.376Z,9.73
2019-01-21T16:08:09.279Z,9.77
2019-01-21T16:11:28.953Z,7.92
2019-01-21T16:14:21.932Z,9.13
2019-01-21T16:17:51.536Z,9.33
2019-01-21T16:20:51.285Z,8.70
2019-01-21T16:29:43.667Z,8.55
2019-01-21T16:32:33.288Z,9.40
2019-01-21T16:44:49.893Z,9.00
2019-01-21T16:47:22.284Z,8.30
2019-01-21T16:52:25.122Z,8.55
2019-01-21T16:54:57.283Z,9.45
2019-01-21T17:00:00.287Z,9.55
2019-01-21T17:05:02.957Z,9.73
2019-01-21T17:07:34.950Z,9.10
2019-01-21T17:10:09.322Z,8.88
2019-01-21T17:12:41.403Z,8.38
2019-01-21T17:15:13.668Z,8.63
2019-01-21T17:17:45.877Z,10.55
2019-01-21T17:20:21.332Z,11.53
2019-01-21T17:22:53.356Z,10.48
2019-01-21T17:27:56.273Z,10.98
2019-01-21T17:32:59.124Z,10.50
2019-01-21T17:35:31.270Z,11.00
2019-01-21T17:40:33.894Z,9.77
2019-01-21T17:43:06.321Z,10.27
2019-01-21T17:45:38.275Z,9.68
2019-01-21T17:50:41.282Z,11.18
2019-01-21T17:55:44.279Z,11.60
2019-01-21T17:58:16.282Z,9.73
2019-01-21T18:03:19.278Z,13.50
2019-01-21T18:08:22.095Z,13.87
2019-01-21T18:10:54.288Z,13.28
2019-01-21T18:15:57.282Z,14.10
2019-01-21T18:20:59.882Z,13.58
2019-01-21T18:23:32.250Z,13.03
2019-01-21T18:28:34.947Z,12.10
2019-01-21T18:31:06.949Z,13.25
2019-01-21T18:33:38.948Z,13.65
2019-01-21T18:36:11.124Z,14.60
2019-01-21T18:38:43.268Z,13.80
2019-01-21T18:43:46.268Z,14.50
2019-01-21T18:50:33.944Z,14.05
2019-01-21T18:53:06.676Z,14.13
2019-01-21T18:55:38.948Z,14.43
2019-01-21T18:58:10.933Z,12.78
2019-01-21T19:00:42.974Z,13.40
2019-01-21T19:03:15.099Z,12.97
2019-01-21T19:08:17.954Z,15.10
2019-01-21T19:10:50.274Z,15.15
2019-01-21T19:20:55.266Z,15.38
2019-01-21T19:25:58.272Z,11.83
2019-01-21T19:31:01.140Z,12.35
2019-01-21T19:33:33.714Z,13.20
2019-01-21T19:36:06.280Z,13.47
2019-01-21T19:41:09.112Z,11.35
2019-01-21T19:43:41.403Z,11.53
2019-01-21T19:46:14.359Z,13.47
2019-01-21T19:48:47.294Z,12.58
2019-01-21T19:51:19.901Z,12.53
2019-01-21T19:53:52.312Z,13.35
2019-01-21T19:56:26.863Z,12.17
2019-01-21T19:58:59.286Z,11.53
2019-01-21T20:01:31.755Z,11.40
2019-01-21T20:04:04.284Z,13.43
2019-01-21T20:09:10.089Z,13.47
2019-01-21T20:11:42.272Z,12.53
2019-01-21T20:19:16.511Z,13.47
2019-01-21T20:21:48.957Z,12.80
2019-01-21T20:24:21.279Z,12.63
2019-01-21T20:29:24.957Z,12.03
2019-01-21T20:31:57.607Z,12.40
2019-01-21T20:34:30.285Z,13.40
2019-01-21T20:39:34.249Z,12.50
2019-01-21T20:47:09.453Z,12.68
2019-01-21T20:49:41.641Z,13.10
2019-01-21T20:52:14.521Z,12.33
2019-01-21T20:54:46.881Z,11.40
2019-01-21T20:57:19.302Z,12.15
2019-01-21T20:59:51.968Z,12.63
2019-01-21T21:02:24.560Z,11.93
2019-01-21T21:04:57.227Z,11.63
2019-01-21T21:10:00.454Z,11.63
2019-01-21T21:12:33.271Z,12.20
2019-01-21T21:17:36.910Z,12.25
2019-01-21T21:20:10.688Z,11.55
2019-01-21T21:22:45.311Z,12.53
2019-01-21T21:25:19.100Z,11.60
2019-01-21T21:27:51.071Z,11.40
2019-01-21T21:30:32.319Z,10.78
2019-01-21T21:33:04.963Z,10.63
2019-01-21T21:35:37.300Z,12.73
2019-01-21T21:38:12.376Z,12.37
2019-01-21T21:40:44.662Z,11.60
2019-01-21T21:43:17.102Z,9.30
2019-01-21T21:50:51.274Z,10.07
2019-01-21T21:55:54.284Z,8.93
2019-01-21T22:00:57.589Z,10.17
2019-01-21T22:03:29.729Z,10.48
2019-01-21T22:06:01.898Z,10.58
2019-01-21T22:08:34.276Z,10.43
2019-01-21T22:13:37.279Z,10.13
2019-01-21T22:16:09.670Z,10.53
2019-01-21T22:18:41.944Z,12.77
2019-01-21T22:21:14.272Z,11.45
2019-01-21T22:23:46.243Z,11.80
2019-01-21T22:28:49.242Z,10.80
2019-01-21T22:33:52.339Z,9.00
2019-01-21T22:36:25.026Z,10.50
2019-01-21T22:44:01.923Z,11.08
2019-01-21T22:46:34.268Z,9.28
2019-01-21T22:49:06.463Z,10.30
2019-01-21T22:51:39.419Z,9.88
2019-01-21T22:54:11.726Z,10.50
2019-01-21T22:56:43.789Z,9.57
2019-01-21T22:59:15.954Z,10.05
2019-01-21T23:01:48.273Z,9.85
2019-01-21T23:06:51.138Z,9.60
2019-01-21T23:09:23.266Z,11.07
2019-01-21T23:14:26.539Z,10.73
2019-01-21T23:16:58.767Z,9.23
2019-01-21T23:19:30.957Z,9.70
2019-01-21T23:22:03.557Z,9.58
2019-01-21T23:24:35.896Z,9.08
2019-01-21T23:27:10.578Z,9.07
2019-01-21T23:29:42.874Z,7.93
2019-01-21T23:34:45.932Z,9.48
2019-01-21T23:37:17.999Z,9.45
2019-01-21T23:39:50.307Z,9.65
2019-01-21T23:42:23.340Z,9.55
2019-01-21T23:44:55.731Z,9.60
2019-01-21T23:47:28.281Z,7.50
2019-01-21T23:50:47.902Z,9.13
2019-01-21T23:53:21.957Z,8.90
2019-01-21T23:55:54.319Z,9.43
2019-01-21T23:58:27.283Z,9.23
